Jennie Dehmer — WDB7140 — position and weather

sailwx.info

Track history (hours):
 
Tides and Currents Weather Stations Pressure Air Temp Water Temp Dewpoint Dewpoint Depression Visibility Wind Speed Wind Dir Waves Ship Positions

Jennie Dehmer

Owner: Magonlia Marine Transport Co, Vicksburg, MS. More information available from US FCC via Universal Licensing System and Coast Guard Vessel Documentation Center.

Last reported at 2017-Nov-11 08:08 UTC. Time now 2017-Nov-21 23:12 UTC.
Position N 32°06' W 091°06'.
Warning: this ship's position is 10 days out of date.

Length 36 m; draft 8.6 m.

Type: Towing. MMSI: 366937040.

Date/timePositionNaut miles runAvg speedWind from/ knotsBaromVisibWave heightAir tempDewpointWater temp
2017-Nov-11 08:08N 32°06' W 091°06'1 9.0
2017-Nov-11 08:00N 32°07' W 091°07'3 6.7
2017-Nov-11 07:30N 32°07' W 091°03'4 7.4
2017-Nov-11 06:54N 32°11' W 090°60'4 8.8
2017-Nov-11 06:30N 32°14' W 090°59'4 8.3
2017-Nov-11 06:00N 32°18' W 090°56'0 0.5
2017-Nov-11 05:30N 32°18' W 090°56'0 0.0
2017-Nov-11 05:00N 32°18' W 090°56'0 0.3
2017-Nov-11 04:30N 32°18' W 090°56'2 4.7
2017-Nov-11 04:00N 32°20' W 090°55'1 2.0
2017-Nov-11 03:30N 32°20' W 090°54'2 5.0
2017-Nov-11 03:00N 32°23' W 090°52'2 3.1
2017-Nov-11 02:30N 32°23' W 090°54'0 0.0
2017-Nov-11 02:00N 32°23' W 090°54'0 0.0
2017-Nov-11 01:30N 32°23' W 090°54'0 0.0
2017-Nov-11 01:00N 32°23' W 090°54'0 0.0
2017-Nov-11 00:30N 32°23' W 090°54'0 0.0
2017-Nov-11 00:00N 32°23' W 090°54'0 0.0
2017-Nov-10 23:30N 32°23' W 090°54'0 0.3
2017-Nov-10 23:00N 32°23' W 090°54'1 2.6
2017-Nov-10 22:30N 32°23' W 090°53'1 2.9
2017-Nov-10 22:00N 32°21' W 090°53'2 3.3
2017-Nov-10 21:30N 32°20' W 090°54'0 0.5
2017-Nov-10 21:00N 32°21' W 090°55'0 0.9
2017-Nov-10 20:30N 32°20' W 090°55'0 0.1
2017-Nov-10 20:00N 32°20' W 090°55'1 1.2
2017-Nov-10 19:30N 32°21' W 090°54'1 1.5
2017-Nov-10 19:00N 32°20' W 090°54'2 4.6
2017-Nov-10 18:30N 32°18' W 090°56'2 4.8
2017-Nov-10 18:00N 32°20' W 090°55'0 0.2
2017-Nov-10 17:30N 32°20' W 090°55'0 0.5
2017-Nov-10 17:00N 32°20' W 090°55'0 0.7
2017-Nov-10 16:30N 32°20' W 090°55'0 0.7
2017-Nov-10 16:00N 32°21' W 090°55'0 0.2
2017-Nov-10 15:30N 32°21' W 090°55'0 0.6
2017-Nov-10 15:00N 32°21' W 090°54'0 0.2
2017-Nov-10 14:30N 32°21' W 090°55'0 0.0
2017-Nov-10 14:00N 32°21' W 090°55'0 0.0
2017-Nov-10 13:30N 32°21' W 090°55'0 0.5
2017-Nov-10 13:00N 32°20' W 090°54'0 0.6
2017-Nov-10 12:30N 32°21' W 090°55'1 1.1
2017-Nov-10 12:00N 32°20' W 090°55'0 0.5
2017-Nov-10 11:30N 32°20' W 090°55'1 1.3
2017-Nov-10 11:00N 32°20' W 090°54'0 0.0
2017-Nov-10 10:30N 32°20' W 090°54'0 0.0
2017-Nov-10 10:00N 32°20' W 090°54'0 0.0
2017-Nov-10 09:30N 32°20' W 090°54'0 0.0
2017-Nov-10 09:00N 32°20' W 090°54'0 0.0
2017-Nov-10 08:30N 32°20' W 090°54'0 0.0
2017-Nov-10 08:00N 32°20' W 090°54'0 0.0
2017-Nov-10 07:30N 32°20' W 090°54'0 0.0
2017-Nov-10 07:00N 32°20' W 090°54'0 0.0
2017-Nov-10 06:30N 32°20' W 090°54'0 0.0
2017-Nov-10 06:00N 32°20' W 090°54'0 0.0
2017-Nov-10 05:30N 32°20' W 090°54'0 0.0
2017-Nov-10 05:00N 32°20' W 090°54'1 1.5
2017-Nov-10 04:30N 32°20' W 090°55'0 0.0
2017-Nov-10 04:00N 32°20' W 090°55'0 0.0
2017-Nov-10 03:30N 32°20' W 090°55'0 0.0
2017-Nov-10 03:00N 32°20' W 090°55'0 0.0
2017-Nov-10 02:30N 32°20' W 090°55'0 0.0
2017-Nov-10 02:00N 32°20' W 090°55'0 0.0
2017-Nov-10 01:30N 32°20' W 090°55'0 0.0
2017-Nov-10 01:00N 32°20' W 090°55'0 0.0
2017-Nov-10 00:30N 32°20' W 090°55'0 0.0
2017-Nov-10 00:00N 32°20' W 090°55'0 0.0
2017-Nov-09 23:30N 32°20' W 090°55'0 0.0
2017-Nov-09 23:00N 32°20' W 090°55'0 0.0
2017-Nov-09 22:30N 32°20' W 090°55'0 0.0
2017-Nov-09 22:00N 32°20' W 090°55'0 0.0
2017-Nov-09 21:30N 32°20' W 090°55'0 0.0
2017-Nov-09 21:00N 32°20' W 090°55'0 0.0
2017-Nov-09 20:30N 32°20' W 090°55'0 0.0
2017-Nov-09 20:00N 32°20' W 090°55'0 0.0
2017-Nov-09 19:30N 32°20' W 090°55'0 0.0
2017-Nov-09 19:00N 32°20' W 090°55'0 0.0
2017-Nov-09 18:30N 32°20' W 090°55'0 0.0
2017-Nov-09 18:00N 32°20' W 090°55'0 0.0
2017-Nov-09 17:30N 32°20' W 090°55'0 0.0
2017-Nov-09 17:00N 32°20' W 090°55'0 0.0
2017-Nov-09 16:30N 32°20' W 090°55'0 0.0
2017-Nov-09 16:00N 32°20' W 090°55'0 0.0
2017-Nov-09 15:30N 32°20' W 090°55'0 0.0
2017-Nov-09 15:00N 32°20' W 090°55'0 0.0
2017-Nov-09 14:30N 32°20' W 090°55'0 0.0
2017-Nov-09 14:00N 32°20' W 090°55'0 0.0
2017-Nov-09 13:30N 32°20' W 090°55'1 1.4
2017-Nov-09 13:00N 32°21' W 090°54'0 0.0
2017-Nov-09 12:30N 32°21' W 090°54'1 1.1
2017-Nov-09 12:00N 32°20' W 090°55'0 0.0
2017-Nov-09 11:30N 32°20' W 090°55'1 1.2
2017-Nov-09 11:00N 32°21' W 090°54'0 0.0
2017-Nov-09 10:30N 32°21' W 090°54'0 0.0
2017-Nov-09 10:00N 32°21' W 090°54'0 0.0
2017-Nov-09 09:30N 32°21' W 090°54'0 0.0
2017-Nov-09 09:00N 32°21' W 090°54'0 0.0
2017-Nov-09 08:30N 32°21' W 090°54'0 0.0
2017-Nov-09 08:00N 32°21' W 090°54'0 0.0
2017-Nov-09 07:30N 32°21' W 090°54'0 0.0
2017-Nov-09 07:00N 32°21' W 090°54'0 0.0
2017-Nov-09 06:30N 32°21' W 090°54'0 0.0
2017-Nov-09 06:00N 32°21' W 090°54'0 0.0
2017-Nov-09 05:30N 32°21' W 090°54'0 0.0
2017-Nov-09 05:00N 32°21' W 090°54'0 0.0
2017-Nov-09 04:30N 32°21' W 090°54'0 0.0
2017-Nov-09 04:00N 32°21' W 090°54'0 0.0
2017-Nov-09 03:30N 32°21' W 090°54'0 0.0
2017-Nov-09 03:00N 32°21' W 090°54'0 0.0
2017-Nov-09 02:30N 32°21' W 090°54'0 0.0
2017-Nov-09 02:00N 32°21' W 090°54'0 0.0
2017-Nov-09 01:30N 32°21' W 090°54'0 0.0
2017-Nov-09 01:00N 32°21' W 090°54'0 0.0
2017-Nov-09 00:30N 32°21' W 090°54'0 0.0
2017-Nov-09 00:00N 32°21' W 090°54'0 0.0
2017-Nov-08 23:30N 32°21' W 090°54'1 1.5
2017-Nov-08 23:00N 32°20' W 090°55'1 1.4
2017-Nov-08 22:30N 32°21' W 090°54'0 0.3
2017-Nov-08 22:00N 32°20' W 090°54'1 1.8
2017-Nov-08 21:30N 32°20' W 090°55'0 0.0
2017-Nov-08 21:00N 32°20' W 090°55'0 0.0
2017-Nov-08 20:30N 32°20' W 090°55'0 0.0
2017-Nov-08 20:00N 32°20' W 090°55'0 0.0
2017-Nov-08 19:30N 32°20' W 090°55'1 1.5
2017-Nov-08 19:00N 32°21' W 090°55'0 0.0
2017-Nov-08 18:30N 32°21' W 090°55'0 0.0
2017-Nov-08 18:00N 32°21' W 090°55'0 0.0
2017-Nov-08 17:30N 32°21' W 090°55'0 0.5
2017-Nov-08 17:00N 32°20' W 090°54'0 0.0
2017-Nov-08 16:30N 32°20' W 090°54'0 0.0
2017-Nov-08 16:00N 32°21' W 090°54'0 0.0
2017-Nov-08 15:30N 32°21' W 090°54'0 0.0
2017-Nov-08 15:00N 32°21' W 090°54'0 0.0
2017-Nov-08 14:30N 32°21' W 090°54'0 0.0
2017-Nov-08 14:00N 32°21' W 090°54'0 0.1
2017-Nov-08 13:30N 32°20' W 090°54'0 0.0
2017-Nov-08 13:00N 32°20' W 090°54'0 0.2
2017-Nov-08 12:30N 32°21' W 090°54'1 1.1
2017-Nov-08 12:00N 32°20' W 090°55'0 0.0
2017-Nov-08 11:30N 32°20' W 090°55'0 0.5
2017-Nov-08 11:00N 32°20' W 090°55'0 0.0
2017-Nov-08 10:30N 32°20' W 090°55'0 0.0
2017-Nov-08 10:00N 32°20' W 090°55'0 0.0
2017-Nov-08 09:30N 32°20' W 090°55'0 0.0
2017-Nov-08 09:00N 32°20' W 090°55'0 0.0
2017-Nov-08 08:30N 32°20' W 090°55'0 0.0
2017-Nov-08 08:00N 32°20' W 090°55'0 0.0
2017-Nov-08 07:30N 32°20' W 090°55'0 0.0
2017-Nov-08 07:00N 32°20' W 090°55'0 0.0
2017-Nov-08 06:30N 32°20' W 090°55'0 0.0
2017-Nov-08 06:00N 32°20' W 090°55'0 0.0
2017-Nov-08 05:30N 32°20' W 090°55'0 0.0
2017-Nov-08 05:00N 32°20' W 090°55'0 0.0
2017-Nov-08 04:30N 32°20' W 090°55'0 0.0
2017-Nov-08 04:00N 32°20' W 090°55'0 0.0
2017-Nov-08 03:30N 32°20' W 090°55'0 0.0
2017-Nov-08 03:00N 32°20' W 090°55'0 0.0
2017-Nov-08 02:30N 32°20' W 090°55'0 0.0
2017-Nov-08 02:00N 32°20' W 090°55'0 0.0
2017-Nov-08 01:30N 32°20' W 090°55'0 0.5
2017-Nov-08 01:00N 32°20' W 090°55'0 0.0
2017-Nov-08 00:30N 32°20' W 090°55'0 0.0
2017-Nov-08 00:00N 32°20' W 090°55'0 0.0
2017-Nov-07 23:30N 32°20' W 090°55'0 0.0
2017-Nov-07 23:00N 32°20' W 090°55'0 0.6
2017-Nov-07 22:30N 32°20' W 090°55'1 1.2
2017-Nov-07 22:00N 32°21' W 090°55'0 0.0
2017-Nov-07 21:30N 32°21' W 090°55'0 0.0
2017-Nov-07 21:00N 32°21' W 090°55'0 0.0
2017-Nov-07 20:30N 32°21' W 090°55'0 0.0
2017-Nov-07 20:00N 32°21' W 090°55'0 0.0
2017-Nov-07 19:30N 32°21' W 090°55'0 0.0
2017-Nov-07 19:00N 32°21' W 090°55'0 0.0
2017-Nov-07 18:30N 32°21' W 090°55'0 0.0
2017-Nov-07 18:00N 32°21' W 090°55'0 0.0
2017-Nov-07 17:30N 32°21' W 090°55'0 0.0
2017-Nov-07 17:00N 32°21' W 090°55'0 0.0
2017-Nov-07 16:30N 32°21' W 090°55'0 0.0
2017-Nov-07 16:00N 32°21' W 090°55'0 0.0
2017-Nov-07 15:30N 32°21' W 090°55'0 0.0
2017-Nov-07 15:00N 32°21' W 090°55'0 0.0
2017-Nov-07 14:30N 32°21' W 090°55'0 0.0
2017-Nov-07 14:00N 32°21' W 090°55'0 0.2
2017-Nov-07 13:30N 32°21' W 090°55'0 0.2
2017-Nov-07 13:00N 32°21' W 090°55'0 0.3
2017-Nov-07 12:30N 32°21' W 090°54'1 1.1
2017-Nov-07 12:00N 32°20' W 090°55'0 0.0
2017-Nov-07 11:30N 32°20' W 090°55'1 1.1
2017-Nov-07 11:00N 32°20' W 090°54'0 0.0
2017-Nov-07 10:30N 32°21' W 090°54'0 0.0
2017-Nov-07 10:00N 32°21' W 090°54'0 0.0
2017-Nov-07 09:30N 32°21' W 090°54'0 0.0
2017-Nov-07 09:00N 32°21' W 090°54'0 0.0
2017-Nov-07 08:30N 32°21' W 090°54'0 0.0
2017-Nov-07 08:00N 32°21' W 090°54'0 0.0
2017-Nov-07 07:30N 32°21' W 090°54'1 1.5
2017-Nov-07 07:00N 32°20' W 090°55'0 0.0
2017-Nov-07 06:30N 32°20' W 090°55'0 0.0
2017-Nov-07 06:00N 32°20' W 090°55'0 0.0
2017-Nov-07 05:30N 32°20' W 090°55'0 0.0
2017-Nov-07 05:00N 32°20' W 090°55'0 0.0
2017-Nov-07 04:30N 32°20' W 090°55'0 0.0
2017-Nov-07 04:00N 32°20' W 090°55'0 0.0
2017-Nov-07 03:30N 32°20' W 090°55'0 0.0
2017-Nov-07 03:00N 32°20' W 090°55'0 0.0
2017-Nov-07 02:30N 32°20' W 090°55'0 0.0
2017-Nov-07 02:00N 32°20' W 090°55'0 0.0
2017-Nov-07 01:30N 32°20' W 090°55'0 0.0
2017-Nov-07 01:00N 32°20' W 090°55'0 0.0
2017-Nov-07 00:30N 32°20' W 090°55'0 0.0
2017-Nov-07 00:00N 32°20' W 090°55'0 0.0
2017-Nov-06 23:30N 32°20' W 090°55'0 0.0
2017-Nov-06 23:00N 32°20' W 090°55'1 1.4
2017-Nov-06 22:30N 32°21' W 090°54'1 1.3
2017-Nov-06 22:00N 32°20' W 090°55'1 1.1
2017-Nov-06 21:30N 32°20' W 090°54'0 0.4
2017-Nov-06 21:00N 32°21' W 090°55'0 0.0
2017-Nov-06 20:30N 32°21' W 090°55'1 0.0
2017-Nov-06 02:30N 32°20' W 090°55'0 0.0
2017-Nov-06 02:00N 32°20' W 090°55'0 0.0
2017-Nov-06 01:30N 32°20' W 090°55'0 0.0
2017-Nov-06 01:00N 32°20' W 090°55'0 0.0
2017-Nov-06 00:30N 32°20' W 090°55'0 0.0
2017-Nov-06 00:00N 32°20' W 090°55'0 0.0
2017-Nov-05 23:30N 32°20' W 090°55'0 0.0
2017-Nov-05 23:00N 32°20' W 090°55'1 1.1
2017-Nov-05 22:30N 32°21' W 090°55'0 0.6
2017-Nov-05 22:00N 32°20' W 090°54'0 0.0
2017-Nov-05 21:30N 32°20' W 090°54'0 0.0
2017-Nov-05 21:00N 32°20' W 090°54'0 0.0
2017-Nov-05 20:30N 32°20' W 090°54'0 0.0
2017-Nov-05 20:00N 32°20' W 090°54'0 0.0
2017-Nov-05 19:30N 32°20' W 090°54'0 0.0
2017-Nov-05 19:00N 32°20' W 090°54'0 0.0
2017-Nov-05 18:30N 32°20' W 090°54'1 1.7
2017-Nov-05 18:00N 32°21' W 090°53'2 4.2
2017-Nov-05 17:30N 32°23' W 090°53'1 2.9
2017-Nov-05 17:00N 32°23' W 090°54'0 0.0
2017-Nov-05 16:30N 32°23' W 090°54'0 0.0
2017-Nov-05 16:00N 32°23' W 090°54'2 3.2
2017-Nov-05 15:30N 32°23' W 090°52'3 5.2
2017-Nov-05 15:00N 32°20' W 090°54'1 1.2
2017-Nov-05 14:30N 32°21' W 090°54'0 0.0
2017-Nov-05 14:00N 32°21' W 090°54'0 0.0
2017-Nov-05 13:30N 32°21' W 090°54'0 0.0
2017-Nov-05 13:00N 32°21' W 090°54'0 0.0
2017-Nov-05 12:30N 32°21' W 090°54'1 1.1
2017-Nov-05 12:00N 32°20' W 090°55'0 0.0
2017-Nov-05 11:30N 32°20' W 090°55'0 0.0
2017-Nov-05 11:00N 32°20' W 090°55'0 0.0
2017-Nov-05 10:30N 32°20' W 090°55'1 1.1
2017-Nov-05 10:00N 32°20' W 090°54'2 4.5
2017-Nov-05 09:30N 32°22' W 090°53'2 3.0
2017-Nov-05 09:00N 32°23' W 090°54'1 1.2
2017-Nov-05 08:30N 32°23' W 090°54'0 0.0
2017-Nov-05 08:00N 32°23' W 090°54'0 0.0
2017-Nov-05 07:30N 32°23' W 090°54'0 0.0
2017-Nov-05 07:00N 32°23' W 090°54'0 0.0
2017-Nov-05 06:30N 32°23' W 090°54'0 0.0
2017-Nov-05 06:00N 32°23' W 090°54'0 0.0
2017-Nov-05 05:30N 32°23' W 090°54'0 0.0
2017-Nov-05 05:00N 32°23' W 090°54'0 0.0
2017-Nov-05 04:30N 32°23' W 090°54'0 0.0
2017-Nov-05 04:00N 32°23' W 090°54'0 0.0
2017-Nov-05 03:30N 32°23' W 090°54'0 0.0
2017-Nov-05 03:00N 32°23' W 090°54'0 0.0
2017-Nov-05 02:30N 32°23' W 090°54'0 0.0
2017-Nov-05 02:00N 32°23' W 090°54'0 0.0
2017-Nov-05 01:30N 32°23' W 090°54'0 0.0
2017-Nov-05 01:00N 32°23' W 090°54'0 0.0
2017-Nov-05 00:30N 32°23' W 090°54'0 0.0
2017-Nov-05 00:00N 32°23' W 090°54'0 0.7
2017-Nov-04 23:30N 32°23' W 090°54'2 3.5
2017-Nov-04 23:00N 32°22' W 090°53'2 4.3
2017-Nov-04 22:30N 32°20' W 090°55'0 1.0
2017-Nov-04 22:00N 32°21' W 090°54'2 4.7
2017-Nov-04 21:30N 32°18' W 090°55'1 1.5
2017-Nov-04 21:00N 32°18' W 090°56'2 3.3
2017-Nov-04 20:31N 32°19' W 090°54'2 3.4
2017-Nov-04 20:01N 32°21' W 090°54'0 0.0
2017-Nov-04 19:31N 32°21' W 090°54'0 0.0
2017-Nov-04 19:00N 32°21' W 090°54'0 0.0
2017-Nov-04 18:31N 32°21' W 090°54'0 0.0
2017-Nov-04 18:01N 32°21' W 090°54'0 0.0
2017-Nov-04 17:31N 32°21' W 090°54'0 0.3
2017-Nov-04 17:00N 32°20' W 090°54'0 0.1
2017-Nov-04 16:30N 32°20' W 090°54'0 0.1
2017-Nov-04 16:01N 32°21' W 090°54'0 0.0
2017-Nov-04 15:31N 32°21' W 090°54'0 0.0
2017-Nov-04 15:01N 32°21' W 090°54'0 0.0
2017-Nov-04 14:30N 32°21' W 090°54'0 0.0
2017-Nov-04 14:00N 32°21' W 090°54'0 0.0
2017-Nov-04 13:30N 32°21' W 090°54'0 0.0
2017-Nov-04 13:00N 32°21' W 090°54'0 0.0
2017-Nov-04 12:30N 32°21' W 090°54'1 1.3
2017-Nov-04 12:00N 32°20' W 090°55'0 0.4
2017-Nov-04 11:31N 32°20' W 090°55'0 0.0
2017-Nov-04 11:01N 32°20' W 090°55'0 0.0
2017-Nov-04 10:31N 32°20' W 090°55'0 0.4
2017-Nov-04 10:01N 32°20' W 090°55'0 0.0
2017-Nov-04 09:31N 32°20' W 090°55'0 0.0
2017-Nov-04 09:01N 32°20' W 090°55'0 0.0
2017-Nov-04 08:31N 32°20' W 090°55'0 0.0
2017-Nov-04 08:00N 32°20' W 090°55'0 0.0
2017-Nov-04 07:31N 32°20' W 090°55'0 0.0
2017-Nov-04 07:01N 32°20' W 090°55'0 0.0
2017-Nov-04 06:31N 32°20' W 090°55'0 0.0
2017-Nov-04 06:01N 32°20' W 090°55'0 0.0
2017-Nov-04 05:30N 32°20' W 090°55'0 0.0
2017-Nov-04 05:00N 32°20' W 090°55'0 0.0
2017-Nov-04 04:31N 32°20' W 090°55'0 0.0
2017-Nov-04 04:01N 32°20' W 090°55'0 0.0
2017-Nov-04 03:31N 32°20' W 090°55'0 0.0
2017-Nov-04 03:01N 32°20' W 090°55'0 0.0
2017-Nov-04 02:31N 32°20' W 090°55'0 0.0
2017-Nov-04 02:00N 32°20' W 090°55'0 0.0
2017-Nov-04 01:31N 32°20' W 090°55'0 0.0
2017-Nov-04 01:00N 32°20' W 090°55'0 0.0
2017-Nov-04 00:31N 32°20' W 090°55'0 0.0
2017-Nov-04 00:01N 32°20' W 090°55'0 0.0
2017-Nov-03 23:31N 32°20' W 090°55'0 0.0
2017-Nov-03 23:01N 32°20' W 090°55'0 0.0
2017-Nov-03 22:31N 32°20' W 090°55'0 0.0
2017-Nov-03 22:00N 32°20' W 090°55'1 1.3
2017-Nov-03 21:31N 32°21' W 090°54'1 1.3
2017-Nov-03 21:00N 32°20' W 090°55'1 1.3
2017-Nov-03 20:31N 32°21' W 090°54'0 0.0
2017-Nov-03 20:01N 32°21' W 090°54'0 0.0
2017-Nov-03 19:30N 32°21' W 090°54'1 1.8
2017-Nov-03 19:00N 32°20' W 090°54'2 4.8
2017-Nov-03 18:31N 32°18' W 090°56'3 5.9
2017-Nov-03 18:01N 32°20' W 090°54'1 1.1
2017-Nov-03 17:31N 32°20' W 090°55'1 1.1
2017-Nov-03 17:01N 32°20' W 090°55'0 0.7
2017-Nov-03 16:30N 32°20' W 090°55'0 0.6
2017-Nov-03 16:01N 32°20' W 090°55'0 0.0
2017-Nov-03 15:31N 32°20' W 090°55'1 2.9
2017-Nov-03 15:01N 32°19' W 090°54'2 3.3
2017-Nov-03 14:30N 32°18' W 090°56'2 4.5
2017-Nov-03 14:01N 32°20' W 090°54'1 1.4
2017-Nov-03 13:30N 32°20' W 090°55'1 1.1
2017-Nov-03 13:00N 32°21' W 090°54'0 0.0
2017-Nov-03 12:30N 32°21' W 090°54'0 0.0
2017-Nov-03 12:01N 32°21' W 090°54'0 0.8
2017-Nov-03 11:31N 32°20' W 090°55'0 0.3
2017-Nov-03 11:01N 32°20' W 090°55'0 0.0
2017-Nov-03 10:30N 32°20' W 090°55'0 0.0
2017-Nov-03 10:00N 32°20' W 090°55'0 0.0
2017-Nov-03 09:31N 32°20' W 090°55'0 0.0
2017-Nov-03 09:01N 32°20' W 090°55'0 0.0
2017-Nov-03 08:30N 32°20' W 090°55'0 0.0
2017-Nov-03 08:00N 32°20' W 090°55'0 0.0
2017-Nov-03 07:30N 32°20' W 090°55'0 0.0
2017-Nov-03 07:01N 32°20' W 090°55'0 0.0
2017-Nov-03 06:30N 32°20' W 090°55'0 0.0
2017-Nov-03 06:00N 32°20' W 090°55'0 0.0
2017-Nov-03 05:30N 32°20' W 090°55'0 0.0
2017-Nov-03 05:00N 32°20' W 090°55'0 0.0
2017-Nov-03 04:31N 32°20' W 090°55'0 0.0
2017-Nov-03 04:01N 32°20' W 090°55'0 0.0
2017-Nov-03 03:30N 32°20' W 090°55'0 0.0
2017-Nov-03 03:01N 32°20' W 090°55'0 0.0
2017-Nov-03 02:30N 32°20' W 090°55'0 0.0
2017-Nov-03 02:01N 32°20' W 090°55'0 0.0
2017-Nov-03 01:31N 32°20' W 090°55'0 0.0
2017-Nov-03 01:01N 32°20' W 090°55'0 0.0
2017-Nov-03 00:31N 32°20' W 090°55'0 0.5
2017-Nov-03 00:00N 32°20' W 090°55'0 0.0
2017-Nov-02 23:31N 32°20' W 090°55'0 0.0
2017-Nov-02 23:00N 32°20' W 090°55'0 0.0
2017-Nov-02 22:31N 32°20' W 090°55'0 0.6
2017-Nov-02 22:00N 32°20' W 090°55'0 0.6
2017-Nov-02 21:30N 32°21' W 090°54'0 0.0
2017-Nov-02 21:00N 32°21' W 090°54'0 0.0
2017-Nov-02 20:30N 32°21' W 090°54'0 0.0
2017-Nov-02 20:01N 32°21' W 090°54'0 0.0
2017-Nov-02 19:31N 32°21' W 090°54'0 0.0
2017-Nov-02 19:01N 32°21' W 090°54'0 0.0
2017-Nov-02 18:31N 32°20' W 090°54'0 0.0
2017-Nov-02 18:01N 32°20' W 090°54'0 0.0
2017-Nov-02 17:31N 32°20' W 090°54'0 0.0
2017-Nov-02 17:01N 32°20' W 090°54'0 0.0
2017-Nov-02 16:31N 32°20' W 090°54'0 0.0
2017-Nov-02 16:01N 32°20' W 090°54'0 0.7
2017-Nov-02 15:30N 32°21' W 090°55'0 0.0
2017-Nov-02 15:01N 32°21' W 090°55'0 0.1
2017-Nov-02 14:30N 32°21' W 090°55'0 0.0
2017-Nov-02 14:01N 32°21' W 090°55'0 0.2
2017-Nov-02 13:30N 32°21' W 090°55'0 0.2
2017-Nov-02 13:00N 32°21' W 090°54'0 0.0
2017-Nov-02 12:31N 32°21' W 090°54'0 0.0
2017-Nov-02 12:00N 32°21' W 090°54'1 1.3
2017-Nov-02 11:31N 32°20' W 090°55'0 0.2
2017-Nov-02 11:01N 32°20' W 090°55'0 0.4
2017-Nov-02 10:30N 32°20' W 090°55'0 0.0
2017-Nov-02 10:01N 32°20' W 090°55'0 0.0
2017-Nov-02 09:30N 32°20' W 090°55'0 0.0
2017-Nov-02 09:01N 32°20' W 090°55'0 0.0
2017-Nov-02 08:31N 32°20' W 090°55'0 0.0
2017-Nov-02 08:01N 32°20' W 090°55'0 0.0
2017-Nov-02 07:31N 32°20' W 090°55'0 0.0
2017-Nov-02 07:00N 32°20' W 090°55'0 0.0
2017-Nov-02 06:30N 32°20' W 090°55'0 0.0
2017-Nov-02 06:00N 32°20' W 090°55'0 0.0
2017-Nov-02 05:31N 32°20' W 090°55'0 0.0
2017-Nov-02 05:00N 32°20' W 090°55'0 0.0
2017-Nov-02 04:30N 32°20' W 090°55'0 0.0
2017-Nov-02 04:00N 32°20' W 090°55'0 0.0
2017-Nov-02 03:31N 32°20' W 090°55'0 0.0
2017-Nov-02 03:01N 32°20' W 090°55'0 0.0
2017-Nov-02 02:31N 32°20' W 090°55'0 0.0
2017-Nov-02 02:01N 32°20' W 090°55'0 0.0
2017-Nov-02 01:31N 32°20' W 090°55'0 0.0
2017-Nov-02 01:00N 32°20' W 090°55'0 0.0
2017-Nov-02 00:31N 32°20' W 090°55'0 0.0
2017-Nov-02 00:01N 32°20' W 090°55'0 0.0
2017-Nov-01 23:30N 32°20' W 090°55'0 0.0
2017-Nov-01 23:01N 32°20' W 090°55'2 3.4
2017-Nov-01 22:31N 32°21' W 090°53'2 3.7
2017-Nov-01 22:00N 32°23' W 090°53'0 0.0
2017-Nov-01 21:31N 32°23' W 090°53'0 0.0
2017-Nov-01 21:01N 32°23' W 090°53'0 0.0
2017-Nov-01 20:31N 32°23' W 090°53'0 0.0
2017-Nov-01 20:01N 32°23' W 090°53'1 2.4
2017-Nov-01 19:30N 32°22' W 090°53'3 6.4
2017-Nov-01 19:00N 32°19' W 090°54'1 2.1
2017-Nov-01 18:30N 32°18' W 090°55'  
Track history (hours):
 
Tides and Currents Weather Stations Pressure Air Temp Water Temp Dewpoint Dewpoint Depression Visibility Wind Speed Wind Dir Waves Ship Positions

Jennie Dehmer

Owner: Magonlia Marine Transport Co, Vicksburg, MS. More information available from US FCC via Universal Licensing System and Coast Guard Vessel Documentation Center.

Last reported at 2017-Nov-11 08:08 UTC. Time now 2017-Nov-21 23:12 UTC.
Position N 32°06' W 091°06'.
Warning: this ship's position is 10 days out of date.

Length 36 m; draft 8.6 m.

Type: Towing. MMSI: 366937040.

Date/timePositionNaut miles runAvg speedWind from/ knotsBaromVisibWave heightAir tempDewpointWater temp
2017-Nov-11 08:08N 32°06' W 091°06'1 9.0
2017-Nov-11 08:00N 32°07' W 091°07'3 6.7
2017-Nov-11 07:30N 32°07' W 091°03'4 7.4
2017-Nov-11 06:54N 32°11' W 090°60'4 8.8
2017-Nov-11 06:30N 32°14' W 090°59'4 8.3
2017-Nov-11 06:00N 32°18' W 090°56'0 0.5
2017-Nov-11 05:30N 32°18' W 090°56'0 0.0
2017-Nov-11 05:00N 32°18' W 090°56'0 0.3
2017-Nov-11 04:30N 32°18' W 090°56'2 4.7
2017-Nov-11 04:00N 32°20' W 090°55'1 2.0
2017-Nov-11 03:30N 32°20' W 090°54'2 5.0
2017-Nov-11 03:00N 32°23' W 090°52'2 3.1
2017-Nov-11 02:30N 32°23' W 090°54'0 0.0
2017-Nov-11 02:00N 32°23' W 090°54'0 0.0
2017-Nov-11 01:30N 32°23' W 090°54'0 0.0
2017-Nov-11 01:00N 32°23' W 090°54'0 0.0
2017-Nov-11 00:30N 32°23' W 090°54'0 0.0
2017-Nov-11 00:00N 32°23' W 090°54'0 0.0
2017-Nov-10 23:30N 32°23' W 090°54'0 0.3
2017-Nov-10 23:00N 32°23' W 090°54'1 2.6
2017-Nov-10 22:30N 32°23' W 090°53'1 2.9
2017-Nov-10 22:00N 32°21' W 090°53'2 3.3
2017-Nov-10 21:30N 32°20' W 090°54'0 0.5
2017-Nov-10 21:00N 32°21' W 090°55'0 0.9
2017-Nov-10 20:30N 32°20' W 090°55'0 0.1
2017-Nov-10 20:00N 32°20' W 090°55'1 1.2
2017-Nov-10 19:30N 32°21' W 090°54'1 1.5
2017-Nov-10 19:00N 32°20' W 090°54'2 4.6
2017-Nov-10 18:30N 32°18' W 090°56'2 4.8
2017-Nov-10 18:00N 32°20' W 090°55'0 0.2
2017-Nov-10 17:30N 32°20' W 090°55'0 0.5
2017-Nov-10 17:00N 32°20' W 090°55'0 0.7
2017-Nov-10 16:30N 32°20' W 090°55'0 0.7
2017-Nov-10 16:00N 32°21' W 090°55'0 0.2
2017-Nov-10 15:30N 32°21' W 090°55'0 0.6
2017-Nov-10 15:00N 32°21' W 090°54'0 0.2
2017-Nov-10 14:30N 32°21' W 090°55'0 0.0
2017-Nov-10 14:00N 32°21' W 090°55'0 0.0
2017-Nov-10 13:30N 32°21' W 090°55'0 0.5
2017-Nov-10 13:00N 32°20' W 090°54'0 0.6
2017-Nov-10 12:30N 32°21' W 090°55'1 1.1
2017-Nov-10 12:00N 32°20' W 090°55'0 0.5
2017-Nov-10 11:30N 32°20' W 090°55'1 1.3
2017-Nov-10 11:00N 32°20' W 090°54'0 0.0
2017-Nov-10 10:30N 32°20' W 090°54'0 0.0
2017-Nov-10 10:00N 32°20' W 090°54'0 0.0
2017-Nov-10 09:30N 32°20' W 090°54'0 0.0
2017-Nov-10 09:00N 32°20' W 090°54'0 0.0
2017-Nov-10 08:30N 32°20' W 090°54'0 0.0
2017-Nov-10 08:00N 32°20' W 090°54'0 0.0
2017-Nov-10 07:30N 32°20' W 090°54'0 0.0
2017-Nov-10 07:00N 32°20' W 090°54'0 0.0
2017-Nov-10 06:30N 32°20' W 090°54'0 0.0
2017-Nov-10 06:00N 32°20' W 090°54'0 0.0
2017-Nov-10 05:30N 32°20' W 090°54'0 0.0
2017-Nov-10 05:00N 32°20' W 090°54'1 1.5
2017-Nov-10 04:30N 32°20' W 090°55'0 0.0
2017-Nov-10 04:00N 32°20' W 090°55'0 0.0
2017-Nov-10 03:30N 32°20' W 090°55'0 0.0
2017-Nov-10 03:00N 32°20' W 090°55'0 0.0
2017-Nov-10 02:30N 32°20' W 090°55'0 0.0
2017-Nov-10 02:00N 32°20' W 090°55'0 0.0
2017-Nov-10 01:30N 32°20' W 090°55'0 0.0
2017-Nov-10 01:00N 32°20' W 090°55'0 0.0
2017-Nov-10 00:30N 32°20' W 090°55'0 0.0
2017-Nov-10 00:00N 32°20' W 090°55'0 0.0
2017-Nov-09 23:30N 32°20' W 090°55'0 0.0
2017-Nov-09 23:00N 32°20' W 090°55'0 0.0
2017-Nov-09 22:30N 32°20' W 090°55'0 0.0
2017-Nov-09 22:00N 32°20' W 090°55'0 0.0
2017-Nov-09 21:30N 32°20' W 090°55'0 0.0
2017-Nov-09 21:00N 32°20' W 090°55'0 0.0
2017-Nov-09 20:30N 32°20' W 090°55'0 0.0
2017-Nov-09 20:00N 32°20' W 090°55'0 0.0
2017-Nov-09 19:30N 32°20' W 090°55'0 0.0
2017-Nov-09 19:00N 32°20' W 090°55'0 0.0
2017-Nov-09 18:30N 32°20' W 090°55'0 0.0
2017-Nov-09 18:00N 32°20' W 090°55'0 0.0
2017-Nov-09 17:30N 32°20' W 090°55'0 0.0
2017-Nov-09 17:00N 32°20' W 090°55'0 0.0
2017-Nov-09 16:30N 32°20' W 090°55'0 0.0
2017-Nov-09 16:00N 32°20' W 090°55'0 0.0
2017-Nov-09 15:30N 32°20' W 090°55'0 0.0
2017-Nov-09 15:00N 32°20' W 090°55'0 0.0
2017-Nov-09 14:30N 32°20' W 090°55'0 0.0
2017-Nov-09 14:00N 32°20' W 090°55'0 0.0
2017-Nov-09 13:30N 32°20' W 090°55'1 1.4
2017-Nov-09 13:00N 32°21' W 090°54'0 0.0
2017-Nov-09 12:30N 32°21' W 090°54'1 1.1
2017-Nov-09 12:00N 32°20' W 090°55'0 0.0
2017-Nov-09 11:30N 32°20' W 090°55'1 1.2
2017-Nov-09 11:00N 32°21' W 090°54'0 0.0
2017-Nov-09 10:30N 32°21' W 090°54'0 0.0
2017-Nov-09 10:00N 32°21' W 090°54'0 0.0
2017-Nov-09 09:30N 32°21' W 090°54'0 0.0
2017-Nov-09 09:00N 32°21' W 090°54'0 0.0
2017-Nov-09 08:30N 32°21' W 090°54'0 0.0
2017-Nov-09 08:00N 32°21' W 090°54'0 0.0
2017-Nov-09 07:30N 32°21' W 090°54'0 0.0
2017-Nov-09 07:00N 32°21' W 090°54'0 0.0
2017-Nov-09 06:30N 32°21' W 090°54'0 0.0
2017-Nov-09 06:00N 32°21' W 090°54'0 0.0
2017-Nov-09 05:30N 32°21' W 090°54'0 0.0
2017-Nov-09 05:00N 32°21' W 090°54'0 0.0
2017-Nov-09 04:30N 32°21' W 090°54'0 0.0
2017-Nov-09 04:00N 32°21' W 090°54'0 0.0
2017-Nov-09 03:30N 32°21' W 090°54'0 0.0
2017-Nov-09 03:00N 32°21' W 090°54'0 0.0
2017-Nov-09 02:30N 32°21' W 090°54'0 0.0
2017-Nov-09 02:00N 32°21' W 090°54'0 0.0
2017-Nov-09 01:30N 32°21' W 090°54'0 0.0
2017-Nov-09 01:00N 32°21' W 090°54'0 0.0
2017-Nov-09 00:30N 32°21' W 090°54'0 0.0
2017-Nov-09 00:00N 32°21' W 090°54'0 0.0
2017-Nov-08 23:30N 32°21' W 090°54'1 1.5
2017-Nov-08 23:00N 32°20' W 090°55'1 1.4
2017-Nov-08 22:30N 32°21' W 090°54'0 0.3
2017-Nov-08 22:00N 32°20' W 090°54'1 1.8
2017-Nov-08 21:30N 32°20' W 090°55'0 0.0
2017-Nov-08 21:00N 32°20' W 090°55'0 0.0
2017-Nov-08 20:30N 32°20' W 090°55'0 0.0
2017-Nov-08 20:00N 32°20' W 090°55'0 0.0
2017-Nov-08 19:30N 32°20' W 090°55'1 1.5
2017-Nov-08 19:00N 32°21' W 090°55'0 0.0
2017-Nov-08 18:30N 32°21' W 090°55'0 0.0
2017-Nov-08 18:00N 32°21' W 090°55'0 0.0
2017-Nov-08 17:30N 32°21' W 090°55'0 0.5
2017-Nov-08 17:00N 32°20' W 090°54'0 0.0
2017-Nov-08 16:30N 32°20' W 090°54'0 0.0
2017-Nov-08 16:00N 32°21' W 090°54'0 0.0
2017-Nov-08 15:30N 32°21' W 090°54'0 0.0
2017-Nov-08 15:00N 32°21' W 090°54'0 0.0
2017-Nov-08 14:30N 32°21' W 090°54'0 0.0
2017-Nov-08 14:00N 32°21' W 090°54'0 0.1
2017-Nov-08 13:30N 32°20' W 090°54'0 0.0
2017-Nov-08 13:00N 32°20' W 090°54'0 0.2
2017-Nov-08 12:30N 32°21' W 090°54'1 1.1
2017-Nov-08 12:00N 32°20' W 090°55'0 0.0
2017-Nov-08 11:30N 32°20' W 090°55'0 0.5
2017-Nov-08 11:00N 32°20' W 090°55'0 0.0
2017-Nov-08 10:30N 32°20' W 090°55'0 0.0
2017-Nov-08 10:00N 32°20' W 090°55'0 0.0
2017-Nov-08 09:30N 32°20' W 090°55'0 0.0
2017-Nov-08 09:00N 32°20' W 090°55'0 0.0
2017-Nov-08 08:30N 32°20' W 090°55'0 0.0
2017-Nov-08 08:00N 32°20' W 090°55'0 0.0
2017-Nov-08 07:30N 32°20' W 090°55'0 0.0
2017-Nov-08 07:00N 32°20' W 090°55'0 0.0
2017-Nov-08 06:30N 32°20' W 090°55'0 0.0
2017-Nov-08 06:00N 32°20' W 090°55'0 0.0
2017-Nov-08 05:30N 32°20' W 090°55'0 0.0
2017-Nov-08 05:00N 32°20' W 090°55'0 0.0
2017-Nov-08 04:30N 32°20' W 090°55'0 0.0
2017-Nov-08 04:00N 32°20' W 090°55'0 0.0
2017-Nov-08 03:30N 32°20' W 090°55'0 0.0
2017-Nov-08 03:00N 32°20' W 090°55'0 0.0
2017-Nov-08 02:30N 32°20' W 090°55'0 0.0
2017-Nov-08 02:00N 32°20' W 090°55'0 0.0
2017-Nov-08 01:30N 32°20' W 090°55'0 0.5
2017-Nov-08 01:00N 32°20' W 090°55'0 0.0
2017-Nov-08 00:30N 32°20' W 090°55'0 0.0
2017-Nov-08 00:00N 32°20' W 090°55'0 0.0
2017-Nov-07 23:30N 32°20' W 090°55'0 0.0
2017-Nov-07 23:00N 32°20' W 090°55'0 0.6
2017-Nov-07 22:30N 32°20' W 090°55'1 1.2
2017-Nov-07 22:00N 32°21' W 090°55'0 0.0
2017-Nov-07 21:30N 32°21' W 090°55'0 0.0
2017-Nov-07 21:00N 32°21' W 090°55'0 0.0
2017-Nov-07 20:30N 32°21' W 090°55'0 0.0
2017-Nov-07 20:00N 32°21' W 090°55'0 0.0
2017-Nov-07 19:30N 32°21' W 090°55'0 0.0
2017-Nov-07 19:00N 32°21' W 090°55'0 0.0
2017-Nov-07 18:30N 32°21' W 090°55'0 0.0
2017-Nov-07 18:00N 32°21' W 090°55'0 0.0
2017-Nov-07 17:30N 32°21' W 090°55'0 0.0
2017-Nov-07 17:00N 32°21' W 090°55'0 0.0
2017-Nov-07 16:30N 32°21' W 090°55'0 0.0
2017-Nov-07 16:00N 32°21' W 090°55'0 0.0
2017-Nov-07 15:30N 32°21' W 090°55'0 0.0
2017-Nov-07 15:00N 32°21' W 090°55'0 0.0
2017-Nov-07 14:30N 32°21' W 090°55'0 0.0
2017-Nov-07 14:00N 32°21' W 090°55'0 0.2
2017-Nov-07 13:30N 32°21' W 090°55'0 0.2
2017-Nov-07 13:00N 32°21' W 090°55'0 0.3
2017-Nov-07 12:30N 32°21' W 090°54'1 1.1
2017-Nov-07 12:00N 32°20' W 090°55'0 0.0
2017-Nov-07 11:30N 32°20' W 090°55'1 1.1
2017-Nov-07 11:00N 32°20' W 090°54'0 0.0
2017-Nov-07 10:30N 32°21' W 090°54'0 0.0
2017-Nov-07 10:00N 32°21' W 090°54'0 0.0
2017-Nov-07 09:30N 32°21' W 090°54'0 0.0
2017-Nov-07 09:00N 32°21' W 090°54'0 0.0
2017-Nov-07 08:30N 32°21' W 090°54'0 0.0
2017-Nov-07 08:00N 32°21' W 090°54'0 0.0
2017-Nov-07 07:30N 32°21' W 090°54'1 1.5
2017-Nov-07 07:00N 32°20' W 090°55'0 0.0
2017-Nov-07 06:30N 32°20' W 090°55'0 0.0
2017-Nov-07 06:00N 32°20' W 090°55'0 0.0
2017-Nov-07 05:30N 32°20' W 090°55'0 0.0
2017-Nov-07 05:00N 32°20' W 090°55'0 0.0
2017-Nov-07 04:30N 32°20' W 090°55'0 0.0
2017-Nov-07 04:00N 32°20' W 090°55'0 0.0
2017-Nov-07 03:30N 32°20' W 090°55'0 0.0
2017-Nov-07 03:00N 32°20' W 090°55'0 0.0
2017-Nov-07 02:30N 32°20' W 090°55'0 0.0
2017-Nov-07 02:00N 32°20' W 090°55'0 0.0
2017-Nov-07 01:30N 32°20' W 090°55'0 0.0
2017-Nov-07 01:00N 32°20' W 090°55'0 0.0
2017-Nov-07 00:30N 32°20' W 090°55'0 0.0
2017-Nov-07 00:00N 32°20' W 090°55'0 0.0
2017-Nov-06 23:30N 32°20' W 090°55'0 0.0
2017-Nov-06 23:00N 32°20' W 090°55'1 1.4
2017-Nov-06 22:30N 32°21' W 090°54'1 1.3
2017-Nov-06 22:00N 32°20' W 090°55'1 1.1
2017-Nov-06 21:30N 32°20' W 090°54'0 0.4
2017-Nov-06 21:00N 32°21' W 090°55'0 0.0
2017-Nov-06 20:30N 32°21' W 090°55'1 0.0
2017-Nov-06 02:30N 32°20' W 090°55'0 0.0
2017-Nov-06 02:00N 32°20' W 090°55'0 0.0
2017-Nov-06 01:30N 32°20' W 090°55'0 0.0
2017-Nov-06 01:00N 32°20' W 090°55'0 0.0
2017-Nov-06 00:30N 32°20' W 090°55'0 0.0
2017-Nov-06 00:00N 32°20' W 090°55'0 0.0
2017-Nov-05 23:30N 32°20' W 090°55'0 0.0
2017-Nov-05 23:00N 32°20' W 090°55'1 1.1
2017-Nov-05 22:30N 32°21' W 090°55'0 0.6
2017-Nov-05 22:00N 32°20' W 090°54'0 0.0
2017-Nov-05 21:30N 32°20' W 090°54'0 0.0
2017-Nov-05 21:00N 32°20' W 090°54'0 0.0
2017-Nov-05 20:30N 32°20' W 090°54'0 0.0
2017-Nov-05 20:00N 32°20' W 090°54'0 0.0
2017-Nov-05 19:30N 32°20' W 090°54'0 0.0
2017-Nov-05 19:00N 32°20' W 090°54'0 0.0
2017-Nov-05 18:30N 32°20' W 090°54'1 1.7
2017-Nov-05 18:00N 32°21' W 090°53'2 4.2
2017-Nov-05 17:30N 32°23' W 090°53'1 2.9
2017-Nov-05 17:00N 32°23' W 090°54'0 0.0
2017-Nov-05 16:30N 32°23' W 090°54'0 0.0
2017-Nov-05 16:00N 32°23' W 090°54'2 3.2
2017-Nov-05 15:30N 32°23' W 090°52'3 5.2
2017-Nov-05 15:00N 32°20' W 090°54'1 1.2
2017-Nov-05 14:30N 32°21' W 090°54'0 0.0
2017-Nov-05 14:00N 32°21' W 090°54'0 0.0
2017-Nov-05 13:30N 32°21' W 090°54'0 0.0
2017-Nov-05 13:00N 32°21' W 090°54'0 0.0
2017-Nov-05 12:30N 32°21' W 090°54'1 1.1
2017-Nov-05 12:00N 32°20' W 090°55'0 0.0
2017-Nov-05 11:30N 32°20' W 090°55'0 0.0
2017-Nov-05 11:00N 32°20' W 090°55'0 0.0
2017-Nov-05 10:30N 32°20' W 090°55'1 1.1
2017-Nov-05 10:00N 32°20' W 090°54'2 4.5
2017-Nov-05 09:30N 32°22' W 090°53'2 3.0
2017-Nov-05 09:00N 32°23' W 090°54'1 1.2
2017-Nov-05 08:30N 32°23' W 090°54'0 0.0
2017-Nov-05 08:00N 32°23' W 090°54'0 0.0
2017-Nov-05 07:30N 32°23' W 090°54'0 0.0
2017-Nov-05 07:00N 32°23' W 090°54'0 0.0
2017-Nov-05 06:30N 32°23' W 090°54'0 0.0
2017-Nov-05 06:00N 32°23' W 090°54'0 0.0
2017-Nov-05 05:30N 32°23' W 090°54'0 0.0
2017-Nov-05 05:00N 32°23' W 090°54'0 0.0
2017-Nov-05 04:30N 32°23' W 090°54'0 0.0
2017-Nov-05 04:00N 32°23' W 090°54'0 0.0
2017-Nov-05 03:30N 32°23' W 090°54'0 0.0
2017-Nov-05 03:00N 32°23' W 090°54'0 0.0
2017-Nov-05 02:30N 32°23' W 090°54'0 0.0
2017-Nov-05 02:00N 32°23' W 090°54'0 0.0
2017-Nov-05 01:30N 32°23' W 090°54'0 0.0
2017-Nov-05 01:00N 32°23' W 090°54'0 0.0
2017-Nov-05 00:30N 32°23' W 090°54'0 0.0
2017-Nov-05 00:00N 32°23' W 090°54'0 0.7
2017-Nov-04 23:30N 32°23' W 090°54'2 3.5
2017-Nov-04 23:00N 32°22' W 090°53'2 4.3
2017-Nov-04 22:30N 32°20' W 090°55'0 1.0
2017-Nov-04 22:00N 32°21' W 090°54'2 4.7
2017-Nov-04 21:30N 32°18' W 090°55'1 1.5
2017-Nov-04 21:00N 32°18' W 090°56'2 3.3
2017-Nov-04 20:31N 32°19' W 090°54'2 3.4
2017-Nov-04 20:01N 32°21' W 090°54'0 0.0
2017-Nov-04 19:31N 32°21' W 090°54'0 0.0
2017-Nov-04 19:00N 32°21' W 090°54'0 0.0
2017-Nov-04 18:31N 32°21' W 090°54'0 0.0
2017-Nov-04 18:01N 32°21' W 090°54'0 0.0
2017-Nov-04 17:31N 32°21' W 090°54'0 0.3
2017-Nov-04 17:00N 32°20' W 090°54'0 0.1
2017-Nov-04 16:30N 32°20' W 090°54'0 0.1
2017-Nov-04 16:01N 32°21' W 090°54'0 0.0
2017-Nov-04 15:31N 32°21' W 090°54'0 0.0
2017-Nov-04 15:01N 32°21' W 090°54'0 0.0
2017-Nov-04 14:30N 32°21' W 090°54'0 0.0
2017-Nov-04 14:00N 32°21' W 090°54'0 0.0
2017-Nov-04 13:30N 32°21' W 090°54'0 0.0
2017-Nov-04 13:00N 32°21' W 090°54'0 0.0
2017-Nov-04 12:30N 32°21' W 090°54'1 1.3
2017-Nov-04 12:00N 32°20' W 090°55'0 0.4
2017-Nov-04 11:31N 32°20' W 090°55'0 0.0
2017-Nov-04 11:01N 32°20' W 090°55'0 0.0
2017-Nov-04 10:31N 32°20' W 090°55'0 0.4
2017-Nov-04 10:01N 32°20' W 090°55'0 0.0
2017-Nov-04 09:31N 32°20' W 090°55'0 0.0
2017-Nov-04 09:01N 32°20' W 090°55'0 0.0
2017-Nov-04 08:31N 32°20' W 090°55'0 0.0
2017-Nov-04 08:00N 32°20' W 090°55'0 0.0
2017-Nov-04 07:31N 32°20' W 090°55'0 0.0
2017-Nov-04 07:01N 32°20' W 090°55'0 0.0
2017-Nov-04 06:31N 32°20' W 090°55'0 0.0
2017-Nov-04 06:01N 32°20' W 090°55'0 0.0
2017-Nov-04 05:30N 32°20' W 090°55'0 0.0
2017-Nov-04 05:00N 32°20' W 090°55'0 0.0
2017-Nov-04 04:31N 32°20' W 090°55'0 0.0
2017-Nov-04 04:01N 32°20' W 090°55'0 0.0
2017-Nov-04 03:31N 32°20' W 090°55'0 0.0
2017-Nov-04 03:01N 32°20' W 090°55'0 0.0
2017-Nov-04 02:31N 32°20' W 090°55'0 0.0
2017-Nov-04 02:00N 32°20' W 090°55'0 0.0
2017-Nov-04 01:31N 32°20' W 090°55'0 0.0
2017-Nov-04 01:00N 32°20' W 090°55'0 0.0
2017-Nov-04 00:31N 32°20' W 090°55'0 0.0
2017-Nov-04 00:01N 32°20' W 090°55'0 0.0
2017-Nov-03 23:31N 32°20' W 090°55'0 0.0
2017-Nov-03 23:01N 32°20' W 090°55'0 0.0
2017-Nov-03 22:31N 32°20' W 090°55'0 0.0
2017-Nov-03 22:00N 32°20' W 090°55'1 1.3
2017-Nov-03 21:31N 32°21' W 090°54'1 1.3
2017-Nov-03 21:00N 32°20' W 090°55'1 1.3
2017-Nov-03 20:31N 32°21' W 090°54'0 0.0
2017-Nov-03 20:01N 32°21' W 090°54'0 0.0
2017-Nov-03 19:30N 32°21' W 090°54'1 1.8
2017-Nov-03 19:00N 32°20' W 090°54'2 4.8
2017-Nov-03 18:31N 32°18' W 090°56'3 5.9
2017-Nov-03 18:01N 32°20' W 090°54'1 1.1
2017-Nov-03 17:31N 32°20' W 090°55'1 1.1
2017-Nov-03 17:01N 32°20' W 090°55'0 0.7
2017-Nov-03 16:30N 32°20' W 090°55'0 0.6
2017-Nov-03 16:01N 32°20' W 090°55'0 0.0
2017-Nov-03 15:31N 32°20' W 090°55'1 2.9
2017-Nov-03 15:01N 32°19' W 090°54'2 3.3
2017-Nov-03 14:30N 32°18' W 090°56'2 4.5
2017-Nov-03 14:01N 32°20' W 090°54'1 1.4
2017-Nov-03 13:30N 32°20' W 090°55'1 1.1
2017-Nov-03 13:00N 32°21' W 090°54'0 0.0
2017-Nov-03 12:30N 32°21' W 090°54'0 0.0
2017-Nov-03 12:01N 32°21' W 090°54'0 0.8
2017-Nov-03 11:31N 32°20' W 090°55'0 0.3
2017-Nov-03 11:01N 32°20' W 090°55'0 0.0
2017-Nov-03 10:30N 32°20' W 090°55'0 0.0
2017-Nov-03 10:00N 32°20' W 090°55'0 0.0
2017-Nov-03 09:31N 32°20' W 090°55'0 0.0
2017-Nov-03 09:01N 32°20' W 090°55'0 0.0
2017-Nov-03 08:30N 32°20' W 090°55'0 0.0
2017-Nov-03 08:00N 32°20' W 090°55'0 0.0
2017-Nov-03 07:30N 32°20' W 090°55'0 0.0
2017-Nov-03 07:01N 32°20' W 090°55'0 0.0
2017-Nov-03 06:30N 32°20' W 090°55'0 0.0
2017-Nov-03 06:00N 32°20' W 090°55'0 0.0
2017-Nov-03 05:30N 32°20' W 090°55'0 0.0
2017-Nov-03 05:00N 32°20' W 090°55'0 0.0
2017-Nov-03 04:31N 32°20' W 090°55'0 0.0
2017-Nov-03 04:01N 32°20' W 090°55'0 0.0
2017-Nov-03 03:30N 32°20' W 090°55'0 0.0
2017-Nov-03 03:01N 32°20' W 090°55'0 0.0
2017-Nov-03 02:30N 32°20' W 090°55'0 0.0
2017-Nov-03 02:01N 32°20' W 090°55'0 0.0
2017-Nov-03 01:31N 32°20' W 090°55'0 0.0
2017-Nov-03 01:01N 32°20' W 090°55'0 0.0
2017-Nov-03 00:31N 32°20' W 090°55'0 0.5
2017-Nov-03 00:00N 32°20' W 090°55'0 0.0
2017-Nov-02 23:31N 32°20' W 090°55'0 0.0
2017-Nov-02 23:00N 32°20' W 090°55'0 0.0
2017-Nov-02 22:31N 32°20' W 090°55'0 0.6
2017-Nov-02 22:00N 32°20' W 090°55'0 0.6
2017-Nov-02 21:30N 32°21' W 090°54'0 0.0
2017-Nov-02 21:00N 32°21' W 090°54'0 0.0
2017-Nov-02 20:30N 32°21' W 090°54'0 0.0
2017-Nov-02 20:01N 32°21' W 090°54'0 0.0
2017-Nov-02 19:31N 32°21' W 090°54'0 0.0
2017-Nov-02 19:01N 32°21' W 090°54'0 0.0
2017-Nov-02 18:31N 32°20' W 090°54'0 0.0
2017-Nov-02 18:01N 32°20' W 090°54'0 0.0
2017-Nov-02 17:31N 32°20' W 090°54'0 0.0
2017-Nov-02 17:01N 32°20' W 090°54'0 0.0
2017-Nov-02 16:31N 32°20' W 090°54'0 0.0
2017-Nov-02 16:01N 32°20' W 090°54'0 0.7
2017-Nov-02 15:30N 32°21' W 090°55'0 0.0
2017-Nov-02 15:01N 32°21' W 090°55'0 0.1
2017-Nov-02 14:30N 32°21' W 090°55'0 0.0
2017-Nov-02 14:01N 32°21' W 090°55'0 0.2
2017-Nov-02 13:30N 32°21' W 090°55'0 0.2
2017-Nov-02 13:00N 32°21' W 090°54'0 0.0
2017-Nov-02 12:31N 32°21' W 090°54'0 0.0
2017-Nov-02 12:00N 32°21' W 090°54'1 1.3
2017-Nov-02 11:31N 32°20' W 090°55'0 0.2
2017-Nov-02 11:01N 32°20' W 090°55'0 0.4
2017-Nov-02 10:30N 32°20' W 090°55'0 0.0
2017-Nov-02 10:01N 32°20' W 090°55'0 0.0
2017-Nov-02 09:30N 32°20' W 090°55'0 0.0
2017-Nov-02 09:01N 32°20' W 090°55'0 0.0
2017-Nov-02 08:31N 32°20' W 090°55'0 0.0
2017-Nov-02 08:01N 32°20' W 090°55'0 0.0
2017-Nov-02 07:31N 32°20' W 090°55'0 0.0
2017-Nov-02 07:00N 32°20' W 090°55'0 0.0
2017-Nov-02 06:30N 32°20' W 090°55'0 0.0
2017-Nov-02 06:00N 32°20' W 090°55'0 0.0
2017-Nov-02 05:31N 32°20' W 090°55'0 0.0
2017-Nov-02 05:00N 32°20' W 090°55'0 0.0
2017-Nov-02 04:30N 32°20' W 090°55'0 0.0
2017-Nov-02 04:00N 32°20' W 090°55'0 0.0
2017-Nov-02 03:31N 32°20' W 090°55'0 0.0
2017-Nov-02 03:01N 32°20' W 090°55'0 0.0
2017-Nov-02 02:31N 32°20' W 090°55'0 0.0
2017-Nov-02 02:01N 32°20' W 090°55'0 0.0
2017-Nov-02 01:31N 32°20' W 090°55'0 0.0
2017-Nov-02 01:00N 32°20' W 090°55'0 0.0
2017-Nov-02 00:31N 32°20' W 090°55'0 0.0
2017-Nov-02 00:01N 32°20' W 090°55'0 0.0
2017-Nov-01 23:30N 32°20' W 090°55'0 0.0
2017-Nov-01 23:01N 32°20' W 090°55'2 3.4
2017-Nov-01 22:31N 32°21' W 090°53'2 3.7
2017-Nov-01 22:00N 32°23' W 090°53'0 0.0
2017-Nov-01 21:31N 32°23' W 090°53'0 0.0
2017-Nov-01 21:01N 32°23' W 090°53'0 0.0
2017-Nov-01 20:31N 32°23' W 090°53'0 0.0
2017-Nov-01 20:01N 32°23' W 090°53'1 2.4
2017-Nov-01 19:30N 32°22' W 090°53'3 6.4
2017-Nov-01 19:00N 32°19' W 090°54'1 2.1
2017-Nov-01 18:30N 32°18' W 090°55'  

Dump ship's entire track history